Time;durP1;ratioP1;P1;durP2;ratioP2;P2;SDS_P1;SDS_P2;PMS_P1;PMS_P2;Temp;Humidity;BMP_temperature;BMP_pressure;BME280_temperature;BME280_humidity;BME280_pressure;Samples;Min_cycle;Max_cycle;Signal;HPM_P1;HPM_P2
2022/12/30 00:00:49;;;;;;;;;;;;;;;;;;5136059;27;916;-75
2022/12/30 00:03:14;;;;;;;;;;;;;;;;;;5099976;27;1412;-75
2022/12/30 00:05:39;;;;;;;;;;;;;;;;;;5135215;27;1897;-75
2022/12/30 00:08:45;;;;;;;;;;;;;;;;;;5117141;27;1076;-75
2022/12/30 00:10:50;;;;;;;;;;;;;;;;;;5119701;27;978;-75
2022/12/30 00:35:29;;;;;;;;;;;;;;;;;;5113715;28;690;-75
2022/12/30 00:37:54;;;;;;;;;;;;;;;;;;5095592;28;1195;-74
2022/12/30 00:40:20;;;;;;;;;;;;;;;;;;5114611;28;817;-74
2022/12/30 00:45:29;;;;;;;;;;;;;;;;;;5114589;28;1905;-75
2022/12/30 00:47:54;;;;;;;;;;;;;;;;;;5114241;28;958;-75
2022/12/30 00:58:31;;;;;;;;;;;;;;;;;;5113017;28;631;-74
2022/12/30 01:00:57;;;;;;;;;;;;;;;;;;5112700;28;909;-74
2022/12/30 01:03:22;;;;;;;;;;;;;;;;;;5112606;28;777;-73
2022/12/30 01:05:47;;;;;;;;;;;;;;;;;;5095098;28;1906;-74
2022/12/30 01:08:12;;;;;;;;;;;;;;;;;;5112145;28;892;-73
2022/12/30 01:10:38;;;;;;;;;;;;;;;;;;5112311;28;1217;-74
2022/12/30 01:13:04;;;;;;;;;;;;;;;;;;5112332;28;1508;-74
2022/12/30 01:15:29;;;;;;;;;;;;;;;;;;5095551;28;1188;-74
2022/12/30 01:17:54;;;;;;;;;;;;;;;;;;5112000;28;1181;-74
2022/12/30 01:20:20;;;;;;;;;;;;;;;;;;5095749;28;1230;-74
2022/12/30 01:22:45;;;;;;;;;;;;;;;;;;5113484;28;947;-75
2022/12/30 01:25:11;;;;;;;;;;;;;;;;;;5119807;27;1968;-75
2022/12/30 01:27:37;;;;;;;;;;;;;;;;;;5115726;27;1179;-75
2022/12/30 01:30:02;;;;;;;;;;;;;;;;;;5098334;27;1246;-75
2022/12/30 01:32:28;;;;;;;;;;;;;;;;;;5098942;27;1255;-75
2022/12/30 01:34:55;;;;;;;;;;;;;;;;;;5133732;27;824;-75
2022/12/30 01:37:20;;;;;;;;;;;;;;;;;;5133809;27;920;-75
2022/12/30 01:39:45;;;;;;;;;;;;;;;;;;5098553;27;1390;-75
2022/12/30 01:42:21;;;;;;;;;;;;;;;;;;5114955;27;1353;-75
2022/12/30 01:45:01;;;;;;;;;;;;;;;;;;5133429;27;1909;-75
2022/12/30 01:47:29;;;;;;;;;;;;;;;;;;5134011;27;891;-75
2022/12/30 01:50:21;;;;;;;;;;;;;;;;;;5132880;27;895;-75
2022/12/30 01:52:48;;;;;;;;;;;;;;;;;;5083554;27;1224;-75
2022/12/30 01:55:16;;;;;;;;;;;;;;;;;;5114707;27;1266;-75
2022/12/30 01:57:43;;;;;;;;;;;;;;;;;;5114688;27;1183;-75
2022/12/30 02:00:10;;;;;;;;;;;;;;;;;;5133584;27;947;-75
2022/12/30 02:02:35;;;;;;;;;;;;;;;;;;5115063;27;963;-75
2022/12/30 02:05:01;;;;;;;;;;;;;;;;;;5115402;28;1926;-75
2022/12/30 02:07:34;;;;;;;;;;;;;;;;;;5133551;27;974;-75
2022/12/30 02:09:59;;;;;;;;;;;;;;;;;;5132738;27;967;-75
2022/12/30 02:12:25;;;;;;;;;;;;;;;;;;5115047;27;1006;-75
2022/12/30 02:14:52;;;;;;;;;;;;;;;;;;5116367;27;1243;-75
2022/12/30 02:17:36;;;;;;;;;;;;;;;;;;5137795;27;916;-75
2022/12/30 02:20:30;;;;;;;;;;;;;;;;;;5118147;27;1398;-75
2022/12/30 02:23:01;;;;;;;;;;;;;;;;;;5136729;27;904;-75
2022/12/30 02:25:36;;;;;;;;;;;;;;;;;;5118693;27;1917;-75
2022/12/30 02:28:04;;;;;;;;;;;;;;;;;;5137565;27;876;-75
2022/12/30 02:30:48;;;;;;;;;;;;;;;;;;5118513;27;1423;-75
2022/12/30 02:33:46;;;;;;;;;;;;;;;;;;5118189;28;1346;-74
2022/12/30 02:36:19;;;;;;;;;;;;;;;;;;5073266;28;1203;-75
2022/12/30 02:38:50;;;;;;;;;;;;;;;;;;5118529;28;1358;-74
2022/12/30 02:46:52;;;;;;;;;;;;;;;;;;5137074;28;661;-75
2022/12/30 02:49:19;;;;;;;;;;;;;;;;;;5118518;28;1197;-74
2022/12/30 02:54:30;;;;;;;;;;;;;;;;;;5120281;28;702;-74
2022/12/30 02:56:55;;;;;;;;;;;;;;;;;;5133845;28;915;-74
2022/12/30 03:05:02;;;;;;;;;;;;;;;;;;5133094;28;1971;-75
2022/12/30 03:07:43;;;;;;;;;;;;;;;;;;5132778;28;829;-75
2022/12/30 03:13:06;;;;;;;;;;;;;;;;;;5133962;28;829;-74
2022/12/30 03:15:37;;;;;;;;;;;;;;;;;;5133028;28;899;-74
2022/12/30 03:18:02;;;;;;;;;;;;;;;;;;5132805;28;915;-74
2022/12/30 03:20:30;;;;;;;;;;;;;;;;;;5114213;28;1349;-74
2022/12/30 03:28:26;;;;;;;;;;;;;;;;;;5122088;28;1108;-74
2022/12/30 03:30:57;;;;;;;;;;;;;;;;;;5117345;28;1159;-74
2022/12/30 03:33:22;;;;;;;;;;;;;;;;;;5113145;28;1163;-74
2022/12/30 03:36:07;;;;;;;;;;;;;;;;;;5095831;28;1124;-74
2022/12/30 03:38:34;;;;;;;;;;;;;;;;;;5101405;28;1270;-74
2022/12/30 03:41:01;;;;;;;;;;;;;;;;;;5124834;28;1207;-74
2022/12/30 03:43:27;;;;;;;;;;;;;;;;;;5119521;28;1198;-74
2022/12/30 03:45:52;;;;;;;;;;;;;;;;;;5111158;28;1914;-74
2022/12/30 03:48:18;;;;;;;;;;;;;;;;;;5076767;28;1204;-74
2022/12/30 03:50:43;;;;;;;;;;;;;;;;;;5096558;28;1058;-74
2022/12/30 03:53:09;;;;;;;;;;;;;;;;;;5096438;28;884;-74
2022/12/30 03:55:34;;;;;;;;;;;;;;;;;;5115014;28;959;-74
2022/12/30 03:58:00;;;;;;;;;;;;;;;;;;5114836;28;1057;-74
2022/12/30 04:00:25;;;;;;;;;;;;;;;;;;5096182;28;781;-74
2022/12/30 04:02:50;;;;;;;;;;;;;;;;;;5096435;28;875;-74
2022/12/30 04:05:15;;;;;;;;;;;;;;;;;;5096223;28;1906;-69
2022/12/30 04:07:41;;;;;;;;;;;;;;;;;;5114171;28;975;-69
2022/12/30 04:10:07;;;;;;;;;;;;;;;;;;5114005;28;891;-69
2022/12/30 04:12:32;;;;;;;;;;;;;;;;;;5095825;28;1453;-69
2022/12/30 04:14:57;;;;;;;;;;;;;;;;;;5095934;28;947;-70
2022/12/30 04:17:23;;;;;;;;;;;;;;;;;;5095558;28;1412;-69
2022/12/30 04:19:48;;;;;;;;;;;;;;;;;;5095493;28;1289;-69
2022/12/30 04:22:13;;;;;;;;;;;;;;;;;;5095848;28;1310;-69
2022/12/30 04:24:39;;;;;;;;;;;;;;;;;;5096465;28;1968;-74
2022/12/30 04:27:04;;;;;;;;;;;;;;;;;;5096181;28;813;-74
2022/12/30 04:29:29;;;;;;;;;;;;;;;;;;5096424;28;1205;-74
2022/12/30 04:31:54;;;;;;;;;;;;;;;;;;5097006;28;1210;-74
2022/12/30 04:34:20;;;;;;;;;;;;;;;;;;5079251;28;1306;-74
2022/12/30 04:36:45;;;;;;;;;;;;;;;;;;5114962;28;841;-74
2022/12/30 04:39:10;;;;;;;;;;;;;;;;;;5114277;28;844;-74
2022/12/30 04:41:36;;;;;;;;;;;;;;;;;;5096105;28;1179;-74
2022/12/30 04:44:02;;;;;;;;;;;;;;;;;;5078991;28;1226;-74
2022/12/30 04:46:27;;;;;;;;;;;;;;;;;;5095917;28;1910;-74
2022/12/30 04:48:53;;;;;;;;;;;;;;;;;;5095554;28;1237;-74
2022/12/30 04:51:18;;;;;;;;;;;;;;;;;;5095341;28;987;-74
2022/12/30 04:53:43;;;;;;;;;;;;;;;;;;5095542;28;1072;-74
2022/12/30 04:56:08;;;;;;;;;;;;;;;;;;5095771;28;904;-74
2022/12/30 04:58:34;;;;;;;;;;;;;;;;;;5095053;28;1154;-74
2022/12/30 05:00:59;;;;;;;;;;;;;;;;;;5095155;28;1273;-74
2022/12/30 05:03:24;;;;;;;;;;;;;;;;;;5095169;28;1168;-74
2022/12/30 05:05:49;;;;;;;;;;;;;;;;;;5095148;28;1971;-74
2022/12/30 05:08:15;;;;;;;;;;;;;;;;;;5095427;28;832;-74
2022/12/30 05:10:40;;;;;;;;;;;;;;;;;;5095359;28;1091;-74
2022/12/30 05:13:06;;;;;;;;;;;;;;;;;;5113679;28;994;-74
2022/12/30 05:15:31;;;;;;;;;;;;;;;;;;5113268;28;919;-74
2022/12/30 05:17:57;;;;;;;;;;;;;;;;;;5095178;28;931;-74
2022/12/30 05:20:23;;;;;;;;;;;;;;;;;;5094674;28;833;-74
2022/12/30 05:22:48;;;;;;;;;;;;;;;;;;5113381;28;900;-74
2022/12/30 05:27:57;;;;;;;;;;;;;;;;;;5113621;28;766;-74
2022/12/30 05:30:23;;;;;;;;;;;;;;;;;;5094840;28;876;-74
2022/12/30 05:32:48;;;;;;;;;;;;;;;;;;5094944;28;974;-74
2022/12/30 05:35:13;;;;;;;;;;;;;;;;;;5077665;28;1341;-73
2022/12/30 05:37:39;;;;;;;;;;;;;;;;;;5113338;28;849;-73
2022/12/30 05:40:04;;;;;;;;;;;;;;;;;;5077812;28;1326;-74
2022/12/30 05:42:30;;;;;;;;;;;;;;;;;;5077454;28;1097;-74
2022/12/30 05:44:55;;;;;;;;;;;;;;;;;;5113486;28;1905;-74
2022/12/30 05:47:20;;;;;;;;;;;;;;;;;;5077492;28;1266;-74
2022/12/30 05:49:45;;;;;;;;;;;;;;;;;;5113323;28;1007;-74
2022/12/30 05:52:11;;;;;;;;;;;;;;;;;;5112966;28;845;-74
2022/12/30 05:54:37;;;;;;;;;;;;;;;;;;5094808;28;872;-74
2022/12/30 05:57:02;;;;;;;;;;;;;;;;;;5112979;28;1078;-75
2022/12/30 05:59:27;;;;;;;;;;;;;;;;;;5094285;28;1173;-73
2022/12/30 06:01:52;;;;;;;;;;;;;;;;;;5077298;28;1345;-74
2022/12/30 06:04:17;;;;;;;;;;;;;;;;;;5094267;28;828;-75
2022/12/30 06:06:43;;;;;;;;;;;;;;;;;;5094462;28;1988;-74
2022/12/30 06:09:08;;;;;;;;;;;;;;;;;;5094404;28;1297;-74
2022/12/30 06:11:34;;;;;;;;;;;;;;;;;;5112106;28;836;-74
2022/12/30 06:13:59;;;;;;;;;;;;;;;;;;5112822;28;942;-74
2022/12/30 06:16:24;;;;;;;;;;;;;;;;;;5094142;28;1232;-73
2022/12/30 06:18:49;;;;;;;;;;;;;;;;;;5093884;28;1289;-74
2022/12/30 06:21:15;;;;;;;;;;;;;;;;;;5112247;28;939;-74
2022/12/30 06:23:40;;;;;;;;;;;;;;;;;;5112688;28;1002;-73
2022/12/30 06:26:05;;;;;;;;;;;;;;;;;;5093733;28;1886;-74
2022/12/30 06:28:30;;;;;;;;;;;;;;;;;;5076478;28;1250;-73
2022/12/30 06:30:56;;;;;;;;;;;;;;;;;;5077231;28;1290;-73
2022/12/30 06:33:23;;;;;;;;;;;;;;;;;;5093226;28;1309;-74
2022/12/30 06:35:48;;;;;;;;;;;;;;;;;;5077373;28;1301;-73
2022/12/30 06:38:13;;;;;;;;;;;;;;;;;;5111744;28;879;-74
2022/12/30 06:40:39;;;;;;;;;;;;;;;;;;5093951;28;887;-73
2022/12/30 06:43:04;;;;;;;;;;;;;;;;;;5076830;28;1156;-73
2022/12/30 06:45:30;;;;;;;;;;;;;;;;;;5111118;28;1973;-74
2022/12/30 06:47:55;;;;;;;;;;;;;;;;;;5111720;28;876;-74
2022/12/30 06:50:20;;;;;;;;;;;;;;;;;;5092889;28;1003;-73
2022/12/30 06:52:46;;;;;;;;;;;;;;;;;;5076846;28;1329;-74
2022/12/30 06:55:11;;;;;;;;;;;;;;;;;;5093216;28;939;-74
2022/12/30 06:57:37;;;;;;;;;;;;;;;;;;5093979;28;1018;-74
2022/12/30 07:00:04;;;;;;;;;;;;;;;;;;5093742;28;1195;-74
2022/12/30 07:02:30;;;;;;;;;;;;;;;;;;5093447;28;1329;-73
2022/12/30 07:04:55;;;;;;;;;;;;;;;;;;5094108;28;1909;-73
2022/12/30 07:07:20;;;;;;;;;;;;;;;;;;5093635;28;948;-74
2022/12/30 07:09:46;;;;;;;;;;;;;;;;;;5111966;28;649;-73
2022/12/30 07:12:11;;;;;;;;;;;;;;;;;;5076764;28;1147;-73
2022/12/30 07:14:37;;;;;;;;;;;;;;;;;;5093713;28;1057;-74
2022/12/30 07:17:02;;;;;;;;;;;;;;;;;;5093478;28;1416;-73
2022/12/30 07:19:27;;;;;;;;;;;;;;;;;;5076698;28;1291;-74
2022/12/30 07:21:53;;;;;;;;;;;;;;;;;;5093286;28;883;-74
2022/12/30 07:24:18;;;;;;;;;;;;;;;;;;5095499;28;1171;-74
2022/12/30 07:26:43;;;;;;;;;;;;;;;;;;5079861;28;1906;-74
2022/12/30 07:29:09;;;;;;;;;;;;;;;;;;5097359;28;1209;-74
2022/12/30 07:31:34;;;;;;;;;;;;;;;;;;5080170;28;1229;-74
2022/12/30 07:33:59;;;;;;;;;;;;;;;;;;5080018;28;1251;-74
2022/12/30 07:36:24;;;;;;;;;;;;;;;;;;5115237;28;920;-74
2022/12/30 07:38:50;;;;;;;;;;;;;;;;;;5097431;28;1282;-74
2022/12/30 07:41:15;;;;;;;;;;;;;;;;;;5080389;28;1231;-74
2022/12/30 07:43:40;;;;;;;;;;;;;;;;;;5080219;28;1271;-74
2022/12/30 07:46:06;;;;;;;;;;;;;;;;;;5115418;28;1969;-74
2022/12/30 07:48:31;;;;;;;;;;;;;;;;;;5097316;28;1214;-74
2022/12/30 07:50:56;;;;;;;;;;;;;;;;;;5097700;28;913;-74
2022/12/30 07:53:22;;;;;;;;;;;;;;;;;;5096594;28;1312;-74
2022/12/30 07:55:47;;;;;;;;;;;;;;;;;;5097307;28;801;-74
2022/12/30 07:58:13;;;;;;;;;;;;;;;;;;5115129;28;911;-74
2022/12/30 08:00:38;;;;;;;;;;;;;;;;;;5096730;28;798;-75
2022/12/30 08:03:03;;;;;;;;;;;;;;;;;;5096794;28;1151;-69
2022/12/30 08:05:28;;;;;;;;;;;;;;;;;;5114148;28;1964;-69
2022/12/30 08:07:54;;;;;;;;;;;;;;;;;;5114837;28;935;-74
2022/12/30 08:10:20;;;;;;;;;;;;;;;;;;5095965;28;1245;-68
2022/12/30 08:12:45;;;;;;;;;;;;;;;;;;5114795;28;773;-69
2022/12/30 08:15:11;;;;;;;;;;;;;;;;;;5099306;27;1163;-68
2022/12/30 08:17:37;;;;;;;;;;;;;;;;;;5134780;27;789;-68
2022/12/30 08:20:03;;;;;;;;;;;;;;;;;;5116391;27;871;-68
2022/12/30 08:22:28;;;;;;;;;;;;;;;;;;5112363;28;1924;-68
2022/12/30 08:24:53;;;;;;;;;;;;;;;;;;5095795;28;1893;-68
2022/12/30 08:27:19;;;;;;;;;;;;;;;;;;5078711;28;1338;-68
2022/12/30 08:29:44;;;;;;;;;;;;;;;;;;5095470;28;1640;-68
2022/12/30 08:32:10;;;;;;;;;;;;;;;;;;5095840;28;856;-67
2022/12/30 08:34:35;;;;;;;;;;;;;;;;;;5095454;28;1357;-67
2022/12/30 08:37:00;;;;;;;;;;;;;;;;;;5079198;28;1494;-68
2022/12/30 08:39:26;;;;;;;;;;;;;;;;;;5095747;28;880;-69
2022/12/30 08:41:51;;;;;;;;;;;;;;;;;;5096053;28;875;-68
2022/12/30 08:44:16;;;;;;;;;;;;;;;;;;5078482;28;1347;-68
2022/12/30 08:46:42;;;;;;;;;;;;;;;;;;5078120;28;1971;-68
2022/12/30 08:49:08;;;;;;;;;;;;;;;;;;5078730;28;1326;-68
2022/12/30 08:51:34;;;;;;;;;;;;;;;;;;5094959;28;1329;-67
2022/12/30 08:53:59;;;;;;;;;;;;;;;;;;5094904;28;1199;-67
2022/12/30 08:56:27;;;;;;;;;;;;;;;;;;5095241;28;1203;-68
2022/12/30 08:58:53;;;;;;;;;;;;;;;;;;5113769;28;765;-67
2022/12/30 09:01:20;;;;;;;;;;;;;;;;;;5113927;28;817;-68
2022/12/30 09:03:46;;;;;;;;;;;;;;;;;;5113459;28;845;-67
2022/12/30 09:06:12;;;;;;;;;;;;;;;;;;5113656;28;1902;-68
2022/12/30 09:08:38;;;;;;;;;;;;;;;;;;5113186;28;829;-67
2022/12/30 09:11:17;;;;;;;;;;;;;;;;;;5077979;28;1243;-67
2022/12/30 09:13:42;;;;;;;;;;;;;;;;;;5094494;28;1309;-67
2022/12/30 09:16:09;;;;;;;;;;;;;;;;;;5095148;28;888;-68
2022/12/30 09:18:35;;;;;;;;;;;;;;;;;;5094423;28;1230;-68
2022/12/30 09:21:00;;;;;;;;;;;;;;;;;;5094838;28;1195;-68
2022/12/30 09:23:26;;;;;;;;;;;;;;;;;;5112793;28;916;-68
2022/12/30 09:25:51;;;;;;;;;;;;;;;;;;5094894;28;1972;-68
2022/12/30 09:28:16;;;;;;;;;;;;;;;;;;5094381;28;1148;-68
2022/12/30 09:30:41;;;;;;;;;;;;;;;;;;5093988;28;1007;-68
2022/12/30 09:33:07;;;;;;;;;;;;;;;;;;5095000;28;904;-68
2022/12/30 09:35:33;;;;;;;;;;;;;;;;;;5094407;28;1191;-68
2022/12/30 09:37:59;;;;;;;;;;;;;;;;;;5095000;28;1342;-68
2022/12/30 09:40:38;;;;;;;;;;;;;;;;;;5094534;28;924;-68
2022/12/30 09:43:15;;;;;;;;;;;;;;;;;;5113314;28;856;-67
2022/12/30 09:45:47;;;;;;;;;;;;;;;;;;5095831;28;1977;-67
2022/12/30 09:48:17;;;;;;;;;;;;;;;;;;5094405;28;1278;-68
2022/12/30 09:50:49;;;;;;;;;;;;;;;;;;5094142;28;1262;-68
2022/12/30 09:53:23;;;;;;;;;;;;;;;;;;5113571;28;758;-68
2022/12/30 09:55:51;;;;;;;;;;;;;;;;;;5112955;28;986;-68
2022/12/30 09:58:23;;;;;;;;;;;;;;;;;;5095904;28;1199;-67
2022/12/30 10:00:50;;;;;;;;;;;;;;;;;;5095417;28;1187;-68
2022/12/30 10:03:24;;;;;;;;;;;;;;;;;;5113167;28;1176;-68
2022/12/30 10:06:08;;;;;;;;;;;;;;;;;;5114192;28;1922;-68
2022/12/30 10:08:52;;;;;;;;;;;;;;;;;;5112789;28;757;-67
2022/12/30 10:11:27;;;;;;;;;;;;;;;;;;5093863;28;1210;-67
2022/12/30 10:13:58;;;;;;;;;;;;;;;;;;5093849;28;1210;-68
2022/12/30 10:16:40;;;;;;;;;;;;;;;;;;5093283;28;1440;-67
2022/12/30 10:19:11;;;;;;;;;;;;;;;;;;5112131;28;1050;-67
2022/12/30 10:21:59;;;;;;;;;;;;;;;;;;5111803;28;923;-68
2022/12/30 10:24:48;;;;;;;;;;;;;;;;;;5092928;28;1362;-67
2022/12/30 10:27:18;;;;;;;;;;;;;;;;;;5080368;28;1142;-69
2022/12/30 10:29:44;;;;;;;;;;;;;;;;;;5073061;28;1240;-67
2022/12/30 10:32:16;;;;;;;;;;;;;;;;;;5073516;28;1365;-66
2022/12/30 10:34:42;;;;;;;;;;;;;;;;;;5091580;28;1022;-66
2022/12/30 10:37:13;;;;;;;;;;;;;;;;;;5091584;28;1116;-66
2022/12/30 10:39:45;;;;;;;;;;;;;;;;;;5073189;28;1191;-67
2022/12/30 10:42:32;;;;;;;;;;;;;;;;;;5073902;28;1242;-67
2022/12/30 10:45:18;;;;;;;;;;;;;;;;;;5073418;28;1910;-69
2022/12/30 10:48:07;;;;;;;;;;;;;;;;;;5072744;28;1167;-66
2022/12/30 10:50:37;;;;;;;;;;;;;;;;;;5091475;28;955;-67
2022/12/30 10:53:04;;;;;;;;;;;;;;;;;;5073451;28;1219;-68
2022/12/30 10:55:31;;;;;;;;;;;;;;;;;;5091509;28;849;-69
2022/12/30 10:58:03;;;;;;;;;;;;;;;;;;5073878;28;1238;-68
2022/12/30 11:00:29;;;;;;;;;;;;;;;;;;5095712;28;840;-68
2022/12/30 11:02:56;;;;;;;;;;;;;;;;;;5076640;28;1224;-67
2022/12/30 11:05:26;;;;;;;;;;;;;;;;;;5077396;28;1890;-68
2022/12/30 11:07:56;;;;;;;;;;;;;;;;;;5096493;28;937;-69
2022/12/30 11:10:21;;;;;;;;;;;;;;;;;;5077377;28;1388;-68
2022/12/30 11:15:30;;;;;;;;;;;;;;;;;;5095740;28;659;-68
2022/12/30 11:17:59;;;;;;;;;;;;;;;;;;5094367;28;840;-68
2022/12/30 11:20:36;;;;;;;;;;;;;;;;;;5077732;28;1158;-66
2022/12/30 11:23:06;;;;;;;;;;;;;;;;;;5077271;28;1295;-68
2022/12/30 11:25:34;;;;;;;;;;;;;;;;;;5077492;28;1901;-68
2022/12/30 11:28:01;;;;;;;;;;;;;;;;;;5094004;28;1284;-68
2022/12/30 11:30:42;;;;;;;;;;;;;;;;;;5095081;28;817;-68
2022/12/30 11:33:19;;;;;;;;;;;;;;;;;;5093806;28;1209;-68
2022/12/30 11:35:45;;;;;;;;;;;;;;;;;;5093350;28;1317;-68
2022/12/30 11:38:28;;;;;;;;;;;;;;;;;;5095131;28;896;-68
2022/12/30 11:40:54;;;;;;;;;;;;;;;;;;5093561;28;1277;-69
2022/12/30 11:43:19;;;;;;;;;;;;;;;;;;5094985;28;990;-68
2022/12/30 11:45:54;;;;;;;;;;;;;;;;;;5094781;28;1980;-68
2022/12/30 11:48:28;;;;;;;;;;;;;;;;;;5093801;28;1509;-68
2022/12/30 11:50:53;;;;;;;;;;;;;;;;;;5093705;28;1189;-68
2022/12/30 11:53:20;;;;;;;;;;;;;;;;;;5095018;28;1051;-68
2022/12/30 11:55:50;;;;;;;;;;;;;;;;;;5093302;28;896;-68
2022/12/30 11:58:15;;;;;;;;;;;;;;;;;;5094571;28;879;-68
2022/12/30 12:00:41;;;;;;;;;;;;;;;;;;5093713;28;1445;-67
2022/12/30 12:03:12;;;;;;;;;;;;;;;;;;5077126;28;1066;-72
2022/12/30 12:05:42;;;;;;;;;;;;;;;;;;5095174;28;1906;-72
2022/12/30 12:08:18;;;;;;;;;;;;;;;;;;5093965;28;1292;-72
2022/12/30 12:10:49;;;;;;;;;;;;;;;;;;5092272;28;1363;-71
2022/12/30 12:13:21;;;;;;;;;;;;;;;;;;5093440;28;1199;-69
2022/12/30 12:15:49;;;;;;;;;;;;;;;;;;5092967;28;1522;-69
2022/12/30 12:18:26;;;;;;;;;;;;;;;;;;5094721;28;891;-69
2022/12/30 12:20:59;;;;;;;;;;;;;;;;;;5094687;28;966;-68
2022/12/30 12:23:27;;;;;;;;;;;;;;;;;;5092959;28;1190;-70
2022/12/30 12:26:12;;;;;;;;;;;;;;;;;;5100757;28;1910;-69
2022/12/30 12:28:39;;;;;;;;;;;;;;;;;;5097505;28;1524;-68
2022/12/30 12:31:05;;;;;;;;;;;;;;;;;;5114867;28;845;-69
2022/12/30 12:33:47;;;;;;;;;;;;;;;;;;5115227;28;943;-69
2022/12/30 12:36:35;;;;;;;;;;;;;;;;;;5096964;28;1172;-69
2022/12/30 12:39:02;;;;;;;;;;;;;;;;;;5097019;28;1385;-69
2022/12/30 12:41:31;;;;;;;;;;;;;;;;;;5115112;28;876;-69
2022/12/30 12:44:16;;;;;;;;;;;;;;;;;;5120832;27;1253;-73
2022/12/30 12:46:53;;;;;;;;;;;;;;;;;;5111650;28;1985;-74
2022/12/30 12:49:19;;;;;;;;;;;;;;;;;;5113370;28;1230;-74
2022/12/30 12:52:10;;;;;;;;;;;;;;;;;;5094540;28;1246;-74
2022/12/30 12:54:39;;;;;;;;;;;;;;;;;;5118653;27;1105;-68
2022/12/30 12:57:23;;;;;;;;;;;;;;;;;;5129665;27;1230;-68
2022/12/30 13:00:14;;;;;;;;;;;;;;;;;;5109344;28;1222;-68
2022/12/30 13:02:52;;;;;;;;;;;;;;;;;;5097334;27;1210;-68
2022/12/30 13:05:36;;;;;;;;;;;;;;;;;;5111209;27;1893;-68
2022/12/30 13:08:07;;;;;;;;;;;;;;;;;;5095113;28;1281;-68
2022/12/30 13:10:39;;;;;;;;;;;;;;;;;;5114868;27;1191;-68
2022/12/30 13:13:09;;;;;;;;;;;;;;;;;;5129316;27;1183;-68
2022/12/30 13:15:37;;;;;;;;;;;;;;;;;;5132215;27;1131;-68
2022/12/30 13:18:05;;;;;;;;;;;;;;;;;;5107072;28;1214;-68
2022/12/30 13:20:36;;;;;;;;;;;;;;;;;;5111385;28;1152;-73
2022/12/30 13:23:03;;;;;;;;;;;;;;;;;;5126501;27;1310;-72
2022/12/30 13:25:31;;;;;;;;;;;;;;;;;;5113746;27;1980;-73
2022/12/30 13:27:57;;;;;;;;;;;;;;;;;;5113235;27;1227;-73
2022/12/30 13:30:24;;;;;;;;;;;;;;;;;;5114093;27;1222;-73
2022/12/30 13:33:10;;;;;;;;;;;;;;;;;;5113781;27;1103;-73
2022/12/30 13:35:35;;;;;;;;;;;;;;;;;;5114042;27;1325;-73
2022/12/30 13:38:21;;;;;;;;;;;;;;;;;;5114178;27;1191;-72
2022/12/30 13:40:50;;;;;;;;;;;;;;;;;;5113659;27;1131;-72
2022/12/30 13:43:23;;;;;;;;;;;;;;;;;;5131939;27;1211;-73
2022/12/30 13:45:48;;;;;;;;;;;;;;;;;;5106056;27;1985;-73
2022/12/30 13:48:16;;;;;;;;;;;;;;;;;;5132174;27;1218;-72
2022/12/30 13:50:42;;;;;;;;;;;;;;;;;;5110490;28;1097;-72
2022/12/30 13:53:26;;;;;;;;;;;;;;;;;;5111004;28;1167;-73
2022/12/30 13:55:51;;;;;;;;;;;;;;;;;;5129672;27;1120;-72
2022/12/30 13:58:28;;;;;;;;;;;;;;;;;;5119886;27;1301;-73
2022/12/30 14:01:19;;;;;;;;;;;;;;;;;;5130794;27;1148;-68
2022/12/30 14:03:45;;;;;;;;;;;;;;;;;;5082520;28;1616;-67
2022/12/30 14:06:29;;;;;;;;;;;;;;;;;;5093904;28;1951;-67
2022/12/30 14:09:13;;;;;;;;;;;;;;;;;;5112260;28;777;-67
2022/12/30 14:11:59;;;;;;;;;;;;;;;;;;5094084;28;1207;-67
2022/12/30 14:14:24;;;;;;;;;;;;;;;;;;5112080;28;968;-66
2022/12/30 14:16:54;;;;;;;;;;;;;;;;;;5112543;28;844;-67
2022/12/30 14:19:32;;;;;;;;;;;;;;;;;;5112738;28;824;-67
2022/12/30 14:21:57;;;;;;;;;;;;;;;;;;5112257;28;951;-68
2022/12/30 14:24:37;;;;;;;;;;;;;;;;;;5093354;28;1051;-68
2022/12/30 14:27:03;;;;;;;;;;;;;;;;;;5111583;28;1901;-68
2022/12/30 14:29:33;;;;;;;;;;;;;;;;;;5093069;28;1011;-67
2022/12/30 14:32:06;;;;;;;;;;;;;;;;;;5111152;28;796;-67
2022/12/30 14:34:31;;;;;;;;;;;;;;;;;;5111216;28;923;-68
2022/12/30 14:36:59;;;;;;;;;;;;;;;;;;5111220;28;856;-67
2022/12/30 14:39:25;;;;;;;;;;;;;;;;;;5111929;28;825;-66
2022/12/30 14:41:50;;;;;;;;;;;;;;;;;;5111250;28;900;-68
2022/12/30 14:44:15;;;;;;;;;;;;;;;;;;5093073;28;1165;-67
2022/12/30 14:46:41;;;;;;;;;;;;;;;;;;5111536;28;1913;-68
2022/12/30 14:49:25;;;;;;;;;;;;;;;;;;5092919;28;1033;-68
2022/12/30 14:51:53;;;;;;;;;;;;;;;;;;5111222;28;879;-67
2022/12/30 14:54:20;;;;;;;;;;;;;;;;;;5111245;28;907;-68
2022/12/30 14:57:01;;;;;;;;;;;;;;;;;;5093004;28;1187;-67
2022/12/30 14:59:26;;;;;;;;;;;;;;;;;;5093339;28;1160;-67
2022/12/30 15:02:09;;;;;;;;;;;;;;;;;;5111271;28;908;-68
2022/12/30 15:04:34;;;;;;;;;;;;;;;;;;5092949;28;1318;-68
2022/12/30 15:06:59;;;;;;;;;;;;;;;;;;5111710;28;1897;-68
2022/12/30 15:09:29;;;;;;;;;;;;;;;;;;5093037;28;1235;-67
2022/12/30 15:11:57;;;;;;;;;;;;;;;;;;5111349;28;885;-68
2022/12/30 15:14:23;;;;;;;;;;;;;;;;;;5092718;28;1246;-68
2022/12/30 15:17:04;;;;;;;;;;;;;;;;;;5076493;28;1200;-68
2022/12/30 15:19:29;;;;;;;;;;;;;;;;;;5093211;28;1400;-68
2022/12/30 15:21:55;;;;;;;;;;;;;;;;;;5111673;28;924;-68
2022/12/30 15:24:20;;;;;;;;;;;;;;;;;;5111723;28;911;-68
2022/12/30 15:26:50;;;;;;;;;;;;;;;;;;5076144;28;1906;-67
2022/12/30 15:29:27;;;;;;;;;;;;;;;;;;5111230;28;837;-67
2022/12/30 15:31:53;;;;;;;;;;;;;;;;;;5093238;28;1219;-68
2022/12/30 15:34:38;;;;;;;;;;;;;;;;;;5111288;28;871;-67
2022/12/30 15:37:05;;;;;;;;;;;;;;;;;;5092425;28;1321;-68
2022/12/30 15:39:36;;;;;;;;;;;;;;;;;;5110085;28;1195;-67
2022/12/30 15:42:02;;;;;;;;;;;;;;;;;;5110283;28;1132;-68
2022/12/30 15:44:28;;;;;;;;;;;;;;;;;;5094160;27;1443;-67
2022/12/30 15:46:57;;;;;;;;;;;;;;;;;;5115920;27;1921;-68
2022/12/30 15:49:23;;;;;;;;;;;;;;;;;;5114970;27;1324;-67
2022/12/30 15:51:54;;;;;;;;;;;;;;;;;;5104394;28;1369;-69
2022/12/30 15:54:30;;;;;;;;;;;;;;;;;;5132767;27;1227;-68
2022/12/30 15:56:56;;;;;;;;;;;;;;;;;;5098402;28;1265;-68
2022/12/30 15:59:24;;;;;;;;;;;;;;;;;;5094865;28;1190;-68
2022/12/30 16:01:50;;;;;;;;;;;;;;;;;;5094926;28;1171;-68
2022/12/30 16:04:20;;;;;;;;;;;;;;;;;;5094257;28;1194;-68
2022/12/30 16:06:46;;;;;;;;;;;;;;;;;;5094970;28;1906;-68
2022/12/30 16:09:35;;;;;;;;;;;;;;;;;;5113131;28;1291;-68
2022/12/30 16:12:01;;;;;;;;;;;;;;;;;;5105430;28;1401;-69
2022/12/30 16:14:27;;;;;;;;;;;;;;;;;;5094686;28;1285;-68
2022/12/30 16:16:53;;;;;;;;;;;;;;;;;;5118787;27;1136;-68
2022/12/30 16:19:20;;;;;;;;;;;;;;;;;;5123966;27;1155;-68
2022/12/30 16:21:58;;;;;;;;;;;;;;;;;;5112580;27;1332;-68
2022/12/30 16:24:30;;;;;;;;;;;;;;;;;;5131116;27;1104;-68
2022/12/30 16:27:05;;;;;;;;;;;;;;;;;;5121504;27;1968;-67
2022/12/30 16:29:33;;;;;;;;;;;;;;;;;;5100967;27;1331;-65
2022/12/30 16:31:58;;;;;;;;;;;;;;;;;;5125990;27;1340;-68
2022/12/30 16:34:23;;;;;;;;;;;;;;;;;;5093919;28;1243;-67
2022/12/30 16:36:51;;;;;;;;;;;;;;;;;;5115984;27;1199;-66
2022/12/30 16:39:16;;;;;;;;;;;;;;;;;;5114128;27;1135;-67
2022/12/30 16:41:41;;;;;;;;;;;;;;;;;;5102423;28;1349;-67
2022/12/30 16:44:11;;;;;;;;;;;;;;;;;;5114126;28;817;-67
2022/12/30 16:46:36;;;;;;;;;;;;;;;;;;5095623;28;1914;-67
2022/12/30 16:49:02;;;;;;;;;;;;;;;;;;5098196;27;1283;-67
2022/12/30 16:51:29;;;;;;;;;;;;;;;;;;5093406;28;1498;-67
2022/12/30 16:53:55;;;;;;;;;;;;;;;;;;5094801;28;1402;-67
2022/12/30 16:56:20;;;;;;;;;;;;;;;;;;5114358;27;1202;-67
2022/12/30 16:58:45;;;;;;;;;;;;;;;;;;5113050;27;1532;-66
2022/12/30 17:01:12;;;;;;;;;;;;;;;;;;5115806;27;1227;-67
2022/12/30 17:03:39;;;;;;;;;;;;;;;;;;5134616;27;903;-67
2022/12/30 17:06:04;;;;;;;;;;;;;;;;;;5134611;27;1955;-67
2022/12/30 17:08:30;;;;;;;;;;;;;;;;;;5115777;27;916;-67
2022/12/30 17:10:57;;;;;;;;;;;;;;;;;;5115951;27;1251;-66
2022/12/30 17:13:27;;;;;;;;;;;;;;;;;;5116102;27;1317;-67
2022/12/30 17:15:53;;;;;;;;;;;;;;;;;;5115794;27;1282;-67
2022/12/30 17:18:18;;;;;;;;;;;;;;;;;;5133538;27;993;-67
2022/12/30 17:20:46;;;;;;;;;;;;;;;;;;5115003;27;1269;-67
2022/12/30 17:23:19;;;;;;;;;;;;;;;;;;5133333;27;1467;-67
2022/12/30 17:25:44;;;;;;;;;;;;;;;;;;5133111;27;1910;-67
2022/12/30 17:28:09;;;;;;;;;;;;;;;;;;5115410;27;908;-67
2022/12/30 17:30:34;;;;;;;;;;;;;;;;;;5115087;27;1278;-67
2022/12/30 17:33:00;;;;;;;;;;;;;;;;;;5115636;27;899;-67
2022/12/30 17:35:36;;;;;;;;;;;;;;;;;;5114870;27;884;-67
2022/12/30 17:38:01;;;;;;;;;;;;;;;;;;5115140;27;1408;-67
2022/12/30 17:40:27;;;;;;;;;;;;;;;;;;5098017;27;1219;-67
2022/12/30 17:42:52;;;;;;;;;;;;;;;;;;5114663;27;904;-67
2022/12/30 17:45:18;;;;;;;;;;;;;;;;;;5114878;27;1906;-67
2022/12/30 17:47:47;;;;;;;;;;;;;;;;;;5133402;27;1050;-67
2022/12/30 17:50:13;;;;;;;;;;;;;;;;;;5114549;27;1103;-66
2022/12/30 17:52:38;;;;;;;;;;;;;;;;;;5132821;27;849;-66
2022/12/30 17:55:04;;;;;;;;;;;;;;;;;;5097603;27;1255;-67
2022/12/30 17:57:29;;;;;;;;;;;;;;;;;;5132820;27;848;-66
2022/12/30 17:59:55;;;;;;;;;;;;;;;;;;5114533;27;963;-67
2022/12/30 18:02:20;;;;;;;;;;;;;;;;;;5097284;27;1120;-67
2022/12/30 18:04:45;;;;;;;;;;;;;;;;;;5132692;27;832;-67
2022/12/30 18:07:10;;;;;;;;;;;;;;;;;;5132188;27;1909;-67
2022/12/30 18:09:37;;;;;;;;;;;;;;;;;;5113709;27;1242;-67
2022/12/30 18:12:13;;;;;;;;;;;;;;;;;;5114178;27;1123;-67
2022/12/30 18:14:38;;;;;;;;;;;;;;;;;;5113884;27;1138;-67
2022/12/30 18:17:04;;;;;;;;;;;;;;;;;;5133137;27;804;-71
2022/12/30 18:19:29;;;;;;;;;;;;;;;;;;5132675;27;848;-71